Orel 5 — EMFH — position and weather

sailwx.info

Track history (hours):
 
Tides and Currents Weather Stations Pressure Air Temp Water Temp Dewpoint Dewpoint Depression Visibility Wind Speed Wind Dir Waves Ship Positions

Orel 5

Last reported at 2017-Nov-18 14:00 UTC. Time now 2017-Nov-18 14:14 UTC.
Position N 44°10' E 028°46'.

Length 108 m; draft 2.5 m.

Type: Cargo ship. MMSI: 272059000.

Date/timePositionNaut miles runAvg speedWind from/ knotsBaromVisibWave heightAir tempDewpointWater temp
2017-Nov-18 14:00N 44°10' E 028°46'0 0.0
2017-Nov-18 13:30N 44°10' E 028°46'0 0.0
2017-Nov-18 13:00N 44°10' E 028°46'0 0.0
2017-Nov-18 12:30N 44°10' E 028°46'0 0.0
2017-Nov-18 12:00N 44°10' E 028°46'0 0.0
2017-Nov-18 11:30N 44°10' E 028°46'0 0.0
2017-Nov-18 11:00N 44°10' E 028°46'0 0.1
2017-Nov-18 10:30N 44°10' E 028°46'2 4.3
2017-Nov-18 10:00N 44°08' E 028°46'3 6.4
2017-Nov-18 09:30N 44°05' E 028°48'3 6.2
2017-Nov-18 09:00N 44°02' E 028°50'3 6.2
2017-Nov-18 08:30N 43°59' E 028°50'3 6.4
2017-Nov-18 08:00N 43°56' E 028°50'3 6.4
2017-Nov-18 07:30N 43°53' E 028°50'3 6.7
2017-Nov-18 07:00N 43°50' E 028°50'3 6.7
2017-Nov-18 06:30N 43°46' E 028°49'3 6.8
2017-Nov-18 06:00N 43°43' E 028°49'3 6.8
2017-Nov-18 05:30N 43°40' E 028°49'169 3.6
2017-Nov-16 06:43N 40°51' E 029°02'2 7.5
2017-Nov-16 06:29N 40°50' E 029°04'4 7.8
2017-Nov-16 05:58N 40°48' E 029°09'4 8.1
2017-Nov-16 05:30N 40°47' E 029°13'4 8.2
2017-Nov-16 05:00N 40°45' E 029°18'16 0.6
2017-Nov-15 01:09N 40°51' E 028°58'1 6.8
2017-Nov-15 01:00N 40°51' E 028°57'231 4.9
2017-Nov-13 01:40N 44°41' E 029°30'1 7.2
2017-Nov-13 01:29N 44°41' E 029°31'3 7.3
2017-Nov-13 01:00N 44°43' E 029°36'3 6.8
2017-Nov-13 00:30N 44°45' E 029°39'3 7.0
2017-Nov-13 00:00N 44°48' E 029°42'4 7.1
2017-Nov-12 23:28N 44°51' E 029°45'110 6.3
2017-Nov-12 05:58N 46°30' E 030°55'5 6.0
2017-Nov-12 05:07N 46°33' E 031°01'1 7.1
2017-Nov-12 05:00N 46°34' E 031°02'21 6.8
2017-Nov-12 02:00N 46°35' E 031°32'4 7.3
2017-Nov-12 01:28N 46°35' E 031°37'3 7.3
2017-Nov-12 00:59N 46°36' E 031°42'4 7.1
2017-Nov-12 00:25N 46°36' E 031°48'3 7.0
2017-Nov-12 00:00N 46°35' E 031°52'4 7.1
2017-Nov-11 23:30N 46°34' E 031°57'4 7.1
2017-Nov-11 23:00N 46°32' E 032°02'3 6.7
2017-Nov-11 22:30N 46°32' E 032°07'  
Track history (hours):
 
Tides and Currents Weather Stations Pressure Air Temp Water Temp Dewpoint Dewpoint Depression Visibility Wind Speed Wind Dir Waves Ship Positions

Orel 5

Last reported at 2017-Nov-18 14:00 UTC. Time now 2017-Nov-18 14:14 UTC.
Position N 44°10' E 028°46'.

Length 108 m; draft 2.5 m.

Type: Cargo ship. MMSI: 272059000.

Date/timePositionNaut miles runAvg speedWind from/ knotsBaromVisibWave heightAir tempDewpointWater temp
2017-Nov-18 14:00N 44°10' E 028°46'0 0.0
2017-Nov-18 13:30N 44°10' E 028°46'0 0.0
2017-Nov-18 13:00N 44°10' E 028°46'0 0.0
2017-Nov-18 12:30N 44°10' E 028°46'0 0.0
2017-Nov-18 12:00N 44°10' E 028°46'0 0.0
2017-Nov-18 11:30N 44°10' E 028°46'0 0.0
2017-Nov-18 11:00N 44°10' E 028°46'0 0.1
2017-Nov-18 10:30N 44°10' E 028°46'2 4.3
2017-Nov-18 10:00N 44°08' E 028°46'3 6.4
2017-Nov-18 09:30N 44°05' E 028°48'3 6.2
2017-Nov-18 09:00N 44°02' E 028°50'3 6.2
2017-Nov-18 08:30N 43°59' E 028°50'3 6.4
2017-Nov-18 08:00N 43°56' E 028°50'3 6.4
2017-Nov-18 07:30N 43°53' E 028°50'3 6.7
2017-Nov-18 07:00N 43°50' E 028°50'3 6.7
2017-Nov-18 06:30N 43°46' E 028°49'3 6.8
2017-Nov-18 06:00N 43°43' E 028°49'3 6.8
2017-Nov-18 05:30N 43°40' E 028°49'169 3.6
2017-Nov-16 06:43N 40°51' E 029°02'2 7.5
2017-Nov-16 06:29N 40°50' E 029°04'4 7.8
2017-Nov-16 05:58N 40°48' E 029°09'4 8.1
2017-Nov-16 05:30N 40°47' E 029°13'4 8.2
2017-Nov-16 05:00N 40°45' E 029°18'16 0.6
2017-Nov-15 01:09N 40°51' E 028°58'1 6.8
2017-Nov-15 01:00N 40°51' E 028°57'231 4.9
2017-Nov-13 01:40N 44°41' E 029°30'1 7.2
2017-Nov-13 01:29N 44°41' E 029°31'3 7.3
2017-Nov-13 01:00N 44°43' E 029°36'3 6.8
2017-Nov-13 00:30N 44°45' E 029°39'3 7.0
2017-Nov-13 00:00N 44°48' E 029°42'4 7.1
2017-Nov-12 23:28N 44°51' E 029°45'110 6.3
2017-Nov-12 05:58N 46°30' E 030°55'5 6.0
2017-Nov-12 05:07N 46°33' E 031°01'1 7.1
2017-Nov-12 05:00N 46°34' E 031°02'21 6.8
2017-Nov-12 02:00N 46°35' E 031°32'4 7.3
2017-Nov-12 01:28N 46°35' E 031°37'3 7.3
2017-Nov-12 00:59N 46°36' E 031°42'4 7.1
2017-Nov-12 00:25N 46°36' E 031°48'3 7.0
2017-Nov-12 00:00N 46°35' E 031°52'4 7.1
2017-Nov-11 23:30N 46°34' E 031°57'4 7.1
2017-Nov-11 23:00N 46°32' E 032°02'3 6.7
2017-Nov-11 22:30N 46°32' E 032°07'  

Dump ship's entire track history